sensor_id;sensor_type;location;lat;lon;timestamp;P1;durP1;ratioP1;P2;durP2;ratioP2
7302;SDS011;54309;48.150;11.540;2022-08-19T00:00:02;3.53;;;2.80;;
7302;SDS011;54309;48.150;11.540;2022-08-19T00:02:29;2.73;;;2.40;;
7302;SDS011;54309;48.150;11.540;2022-08-19T00:04:58;2.93;;;2.60;;
7302;SDS011;54309;48.150;11.540;2022-08-19T00:07:25;3.03;;;2.73;;
7302;SDS011;54309;48.150;11.540;2022-08-19T00:09:53;3.17;;;2.87;;
7302;SDS011;54309;48.150;11.540;2022-08-19T00:12:21;3.50;;;3.20;;
7302;SDS011;54309;48.150;11.540;2022-08-19T00:14:51;3.63;;;3.33;;
7302;SDS011;54309;48.150;11.540;2022-08-19T00:17:19;4.97;;;3.37;;
7302;SDS011;54309;48.150;11.540;2022-08-19T00:19:46;3.90;;;3.50;;
7302;SDS011;54309;48.150;11.540;2022-08-19T00:22:15;3.90;;;3.50;;
7302;SDS011;54309;48.150;11.540;2022-08-19T00:24:43;3.90;;;3.40;;
7302;SDS011;54309;48.150;11.540;2022-08-19T00:27:10;4.03;;;3.27;;
7302;SDS011;54309;48.150;11.540;2022-08-19T00:29:37;4.43;;;3.77;;
7302;SDS011;54309;48.150;11.540;2022-08-19T00:32:05;4.07;;;3.53;;
7302;SDS011;54309;48.150;11.540;2022-08-19T00:34:32;4.00;;;3.60;;
7302;SDS011;54309;48.150;11.540;2022-08-19T00:37:00;3.90;;;3.50;;
7302;SDS011;54309;48.150;11.540;2022-08-19T00:39:28;5.67;;;4.73;;
7302;SDS011;54309;48.150;11.540;2022-08-19T00:41:56;9.43;;;4.23;;
7302;SDS011;54309;48.150;11.540;2022-08-19T00:44:24;4.67;;;4.17;;
7302;SDS011;54309;48.150;11.540;2022-08-19T00:46:52;5.43;;;4.07;;
7302;SDS011;54309;48.150;11.540;2022-08-19T00:49:20;5.60;;;4.53;;
7302;SDS011;54309;48.150;11.540;2022-08-19T00:51:50;4.83;;;4.07;;
7302;SDS011;54309;48.150;11.540;2022-08-19T00:54:18;5.17;;;4.67;;
7302;SDS011;54309;48.150;11.540;2022-08-19T00:56:47;5.67;;;4.63;;
7302;SDS011;54309;48.150;11.540;2022-08-19T00:59:15;6.30;;;4.50;;
7302;SDS011;54309;48.150;11.540;2022-08-19T01:01:43;6.70;;;5.10;;
7302;SDS011;54309;48.150;11.540;2022-08-19T01:04:11;6.47;;;4.50;;
7302;SDS011;54309;48.150;11.540;2022-08-19T01:06:38;5.17;;;4.67;;
7302;SDS011;54309;48.150;11.540;2022-08-19T01:09:07;5.07;;;4.57;;
7302;SDS011;54309;48.150;11.540;2022-08-19T01:11:35;5.27;;;4.77;;
7302;SDS011;54309;48.150;11.540;2022-08-19T01:14:04;6.37;;;5.50;;
7302;SDS011;54309;48.150;11.540;2022-08-19T01:16:35;7.43;;;5.43;;
7302;SDS011;54309;48.150;11.540;2022-08-19T01:19:03;6.20;;;5.27;;
7302;SDS011;54309;48.150;11.540;2022-08-19T01:21:37;8.27;;;6.30;;
7302;SDS011;54309;48.150;11.540;2022-08-19T01:24:09;7.03;;;5.43;;
7302;SDS011;54309;48.150;11.540;2022-08-19T01:26:38;7.90;;;6.10;;
7302;SDS011;54309;48.150;11.540;2022-08-19T01:29:06;6.90;;;6.10;;
7302;SDS011;54309;48.150;11.540;2022-08-19T01:31:33;7.20;;;6.47;;
7302;SDS011;54309;48.150;11.540;2022-08-19T01:34:02;8.20;;;6.47;;
7302;SDS011;54309;48.150;11.540;2022-08-19T01:36:30;7.20;;;6.50;;
7302;SDS011;54309;48.150;11.540;2022-08-19T01:38:58;7.50;;;5.57;;
7302;SDS011;54309;48.150;11.540;2022-08-19T01:41:27;7.03;;;6.23;;
7302;SDS011;54309;48.150;11.540;2022-08-19T01:43:54;7.43;;;6.70;;
7302;SDS011;54309;48.150;11.540;2022-08-19T01:46:22;7.30;;;6.00;;
7302;SDS011;54309;48.150;11.540;2022-08-19T01:48:49;8.43;;;6.40;;
7302;SDS011;54309;48.150;11.540;2022-08-19T01:51:17;8.00;;;6.70;;
7302;SDS011;54309;48.150;11.540;2022-08-19T01:53:46;8.17;;;5.83;;
7302;SDS011;54309;48.150;11.540;2022-08-19T01:56:14;6.47;;;5.40;;
7302;SDS011;54309;48.150;11.540;2022-08-19T01:58:43;6.63;;;5.33;;
7302;SDS011;54309;48.150;11.540;2022-08-19T02:01:12;6.70;;;6.00;;
7302;SDS011;54309;48.150;11.540;2022-08-19T02:03:40;7.30;;;5.50;;
7302;SDS011;54309;48.150;11.540;2022-08-19T02:06:07;6.40;;;5.67;;
7302;SDS011;54309;48.150;11.540;2022-08-19T02:08:35;7.53;;;6.20;;
7302;SDS011;54309;48.150;11.540;2022-08-19T02:11:03;6.87;;;5.03;;
7302;SDS011;54309;48.150;11.540;2022-08-19T02:13:30;6.60;;;5.53;;
7302;SDS011;54309;48.150;11.540;2022-08-19T02:15:59;6.83;;;5.93;;
7302;SDS011;54309;48.150;11.540;2022-08-19T02:18:26;7.23;;;5.10;;
7302;SDS011;54309;48.150;11.540;2022-08-19T02:20:53;6.37;;;5.37;;
7302;SDS011;54309;48.150;11.540;2022-08-19T02:23:20;5.63;;;5.03;;
7302;SDS011;54309;48.150;11.540;2022-08-19T02:25:48;6.13;;;5.27;;
7302;SDS011;54309;48.150;11.540;2022-08-19T02:28:15;6.47;;;5.23;;
7302;SDS011;54309;48.150;11.540;2022-08-19T02:30:42;5.10;;;4.60;;
7302;SDS011;54309;48.150;11.540;2022-08-19T02:33:11;5.37;;;4.80;;
7302;SDS011;54309;48.150;11.540;2022-08-19T02:35:40;5.63;;;4.50;;
7302;SDS011;54309;48.150;11.540;2022-08-19T02:38:07;6.70;;;5.00;;
7302;SDS011;54309;48.150;11.540;2022-08-19T02:40:53;5.10;;;4.60;;
7302;SDS011;54309;48.150;11.540;2022-08-19T02:43:21;4.63;;;4.23;;
7302;SDS011;54309;48.150;11.540;2022-08-19T02:45:48;7.30;;;5.43;;
7302;SDS011;54309;48.150;11.540;2022-08-19T02:48:18;5.43;;;4.47;;
7302;SDS011;54309;48.150;11.540;2022-08-19T02:50:45;4.87;;;4.37;;
7302;SDS011;54309;48.150;11.540;2022-08-19T02:53:13;5.53;;;4.53;;
7302;SDS011;54309;48.150;11.540;2022-08-19T02:55:44;6.03;;;4.50;;
7302;SDS011;54309;48.150;11.540;2022-08-19T02:58:11;5.07;;;4.57;;
7302;SDS011;54309;48.150;11.540;2022-08-19T03:00:42;6.03;;;4.70;;
7302;SDS011;54309;48.150;11.540;2022-08-19T03:03:10;5.03;;;4.53;;
7302;SDS011;54309;48.150;11.540;2022-08-19T03:05:39;5.77;;;4.77;;
7302;SDS011;54309;48.150;11.540;2022-08-19T03:08:06;5.03;;;4.50;;
7302;SDS011;54309;48.150;11.540;2022-08-19T03:10:39;6.13;;;4.63;;
7302;SDS011;54309;48.150;11.540;2022-08-19T03:13:07;4.70;;;4.23;;
7302;SDS011;54309;48.150;11.540;2022-08-19T03:15:34;6.17;;;5.00;;
7302;SDS011;54309;48.150;11.540;2022-08-19T03:18:01;5.77;;;4.87;;
7302;SDS011;54309;48.150;11.540;2022-08-19T03:20:28;4.97;;;4.47;;
7302;SDS011;54309;48.150;11.540;2022-08-19T03:22:57;4.77;;;4.27;;
7302;SDS011;54309;48.150;11.540;2022-08-19T03:25:24;4.63;;;4.13;;
7302;SDS011;54309;48.150;11.540;2022-08-19T03:27:51;4.97;;;4.37;;
7302;SDS011;54309;48.150;11.540;2022-08-19T03:30:18;5.33;;;4.63;;
7302;SDS011;54309;48.150;11.540;2022-08-19T03:32:45;4.63;;;3.93;;
7302;SDS011;54309;48.150;11.540;2022-08-19T03:35:13;4.37;;;3.73;;
7302;SDS011;54309;48.150;11.540;2022-08-19T03:37:40;4.53;;;3.97;;
7302;SDS011;54309;48.150;11.540;2022-08-19T03:40:09;4.97;;;4.10;;
7302;SDS011;54309;48.150;11.540;2022-08-19T03:42:36;4.47;;;4.03;;
7302;SDS011;54309;48.150;11.540;2022-08-19T03:45:05;4.27;;;3.87;;
7302;SDS011;54309;48.150;11.540;2022-08-19T03:47:33;4.97;;;4.03;;
7302;SDS011;54309;48.150;11.540;2022-08-19T03:50:00;4.87;;;4.37;;
7302;SDS011;54309;48.150;11.540;2022-08-19T03:52:27;4.77;;;4.10;;
7302;SDS011;54309;48.150;11.540;2022-08-19T03:54:54;4.60;;;4.20;;
7302;SDS011;54309;48.150;11.540;2022-08-19T03:57:23;4.90;;;3.83;;
7302;SDS011;54309;48.150;11.540;2022-08-19T03:59:50;4.70;;;4.23;;
7302;SDS011;54309;48.150;11.540;2022-08-19T04:02:17;4.33;;;3.90;;
7302;SDS011;54309;48.150;11.540;2022-08-19T04:04:45;4.53;;;4.03;;
7302;SDS011;54309;48.150;11.540;2022-08-19T04:07:13;5.70;;;4.83;;
7302;SDS011;54309;48.150;11.540;2022-08-19T04:09:43;5.37;;;4.47;;
7302;SDS011;54309;48.150;11.540;2022-08-19T04:12:10;5.47;;;4.80;;
7302;SDS011;54309;48.150;11.540;2022-08-19T04:14:39;5.63;;;4.43;;
7302;SDS011;54309;48.150;11.540;2022-08-19T04:17:06;6.80;;;5.07;;
7302;SDS011;54309;48.150;11.540;2022-08-19T04:19:33;6.33;;;5.47;;
7302;SDS011;54309;48.150;11.540;2022-08-19T04:22:01;8.37;;;6.40;;
7302;SDS011;54309;48.150;11.540;2022-08-19T04:24:29;7.40;;;6.20;;
7302;SDS011;54309;48.150;11.540;2022-08-19T04:26:56;7.77;;;6.00;;
7302;SDS011;54309;48.150;11.540;2022-08-19T04:29:24;7.97;;;5.90;;
7302;SDS011;54309;48.150;11.540;2022-08-19T04:31:53;7.03;;;6.03;;
7302;SDS011;54309;48.150;11.540;2022-08-19T04:34:22;8.73;;;5.93;;
7302;SDS011;54309;48.150;11.540;2022-08-19T04:36:50;8.47;;;5.97;;
7302;SDS011;54309;48.150;11.540;2022-08-19T04:39:18;7.50;;;6.50;;
7302;SDS011;54309;48.150;11.540;2022-08-19T04:41:46;7.20;;;5.40;;
7302;SDS011;54309;48.150;11.540;2022-08-19T04:44:31;10.03;;;6.23;;
7302;SDS011;54309;48.150;11.540;2022-08-19T04:47:00;8.67;;;6.23;;
7302;SDS011;54309;48.150;11.540;2022-08-19T04:49:30;9.10;;;6.60;;
7302;SDS011;54309;48.150;11.540;2022-08-19T04:51:57;7.47;;;5.67;;
7302;SDS011;54309;48.150;11.540;2022-08-19T04:54:25;6.33;;;5.20;;
7302;SDS011;54309;48.150;11.540;2022-08-19T04:56:52;6.93;;;5.90;;
7302;SDS011;54309;48.150;11.540;2022-08-19T04:59:20;9.13;;;6.10;;
7302;SDS011;54309;48.150;11.540;2022-08-19T05:01:48;7.17;;;5.80;;
7302;SDS011;54309;48.150;11.540;2022-08-19T05:04:17;6.70;;;5.40;;
7302;SDS011;54309;48.150;11.540;2022-08-19T05:06:45;7.37;;;5.97;;
7302;SDS011;54309;48.150;11.540;2022-08-19T05:09:13;7.30;;;5.67;;
7302;SDS011;54309;48.150;11.540;2022-08-19T05:11:40;9.97;;;6.50;;
7302;SDS011;54309;48.150;11.540;2022-08-19T05:14:08;7.07;;;5.37;;
7302;SDS011;54309;48.150;11.540;2022-08-19T05:16:37;7.33;;;6.00;;
7302;SDS011;54309;48.150;11.540;2022-08-19T05:19:04;7.40;;;5.83;;
7302;SDS011;54309;48.150;11.540;2022-08-19T05:21:51;6.20;;;5.60;;
7302;SDS011;54309;48.150;11.540;2022-08-19T05:24:36;9.77;;;5.97;;
7302;SDS011;54309;48.150;11.540;2022-08-19T05:27:03;8.70;;;6.27;;
7302;SDS011;54309;48.150;11.540;2022-08-19T05:29:31;8.43;;;6.33;;
7302;SDS011;54309;48.150;11.540;2022-08-19T05:32:01;6.43;;;5.67;;
7302;SDS011;54309;48.150;11.540;2022-08-19T05:34:30;6.97;;;6.03;;
7302;SDS011;54309;48.150;11.540;2022-08-19T05:36:59;7.37;;;6.20;;
7302;SDS011;54309;48.150;11.540;2022-08-19T05:39:29;8.40;;;6.17;;
7302;SDS011;54309;48.150;11.540;2022-08-19T05:41:58;8.50;;;6.57;;
7302;SDS011;54309;48.150;11.540;2022-08-19T05:44:25;6.70;;;5.97;;
7302;SDS011;54309;48.150;11.540;2022-08-19T05:46:56;10.50;;;6.67;;
7302;SDS011;54309;48.150;11.540;2022-08-19T05:49:24;7.90;;;6.07;;
7302;SDS011;54309;48.150;11.540;2022-08-19T05:51:52;10.07;;;6.63;;
7302;SDS011;54309;48.150;11.540;2022-08-19T05:54:21;7.40;;;6.20;;
7302;SDS011;54309;48.150;11.540;2022-08-19T05:56:49;8.73;;;6.33;;
7302;SDS011;54309;48.150;11.540;2022-08-19T05:59:17;7.57;;;5.80;;
7302;SDS011;54309;48.150;11.540;2022-08-19T06:01:46;9.90;;;6.77;;
7302;SDS011;54309;48.150;11.540;2022-08-19T06:04:15;8.77;;;6.93;;
7302;SDS011;54309;48.150;11.540;2022-08-19T06:06:43;8.03;;;6.40;;
7302;SDS011;54309;48.150;11.540;2022-08-19T06:09:11;10.63;;;8.63;;
7302;SDS011;54309;48.150;11.540;2022-08-19T06:11:41;9.50;;;7.50;;
7302;SDS011;54309;48.150;11.540;2022-08-19T06:14:13;9.70;;;7.57;;
7302;SDS011;54309;48.150;11.540;2022-08-19T06:16:43;8.77;;;7.53;;
7302;SDS011;54309;48.150;11.540;2022-08-19T06:19:13;9.90;;;8.00;;
7302;SDS011;54309;48.150;11.540;2022-08-19T06:21:41;10.33;;;8.23;;
7302;SDS011;54309;48.150;11.540;2022-08-19T06:24:10;10.23;;;7.67;;
7302;SDS011;54309;48.150;11.540;2022-08-19T06:26:40;10.43;;;7.97;;
7302;SDS011;54309;48.150;11.540;2022-08-19T06:29:10;9.33;;;8.13;;
7302;SDS011;54309;48.150;11.540;2022-08-19T06:31:40;10.40;;;8.50;;
7302;SDS011;54309;48.150;11.540;2022-08-19T06:34:08;11.17;;;7.97;;
7302;SDS011;54309;48.150;11.540;2022-08-19T06:36:36;10.10;;;8.77;;
7302;SDS011;54309;48.150;11.540;2022-08-19T06:39:12;11.50;;;8.53;;
7302;SDS011;54309;48.150;11.540;2022-08-19T06:41:40;10.13;;;8.70;;
7302;SDS011;54309;48.150;11.540;2022-08-19T06:44:10;11.63;;;9.20;;
7302;SDS011;54309;48.150;11.540;2022-08-19T06:46:38;13.57;;;9.80;;
7302;SDS011;54309;48.150;11.540;2022-08-19T06:49:05;15.00;;;10.50;;
7302;SDS011;54309;48.150;11.540;2022-08-19T06:51:36;13.17;;;9.87;;
7302;SDS011;54309;48.150;11.540;2022-08-19T06:54:04;13.87;;;10.03;;
7302;SDS011;54309;48.150;11.540;2022-08-19T06:56:31;13.37;;;9.97;;
7302;SDS011;54309;48.150;11.540;2022-08-19T06:58:59;13.40;;;9.67;;
7302;SDS011;54309;48.150;11.540;2022-08-19T07:01:28;14.97;;;10.77;;
7302;SDS011;54309;48.150;11.540;2022-08-19T07:03:55;11.93;;;9.97;;
7302;SDS011;54309;48.150;11.540;2022-08-19T07:06:22;14.30;;;10.37;;
7302;SDS011;54309;48.150;11.540;2022-08-19T07:08:50;13.70;;;11.03;;
7302;SDS011;54309;48.150;11.540;2022-08-19T07:11:17;16.10;;;10.53;;
7302;SDS011;54309;48.150;11.540;2022-08-19T07:13:46;13.63;;;10.93;;
7302;SDS011;54309;48.150;11.540;2022-08-19T07:16:14;16.03;;;11.60;;
7302;SDS011;54309;48.150;11.540;2022-08-19T07:18:43;15.73;;;11.47;;
7302;SDS011;54309;48.150;11.540;2022-08-19T07:21:11;15.10;;;10.40;;
7302;SDS011;54309;48.150;11.540;2022-08-19T07:23:39;13.77;;;10.83;;
7302;SDS011;54309;48.150;11.540;2022-08-19T07:26:07;15.07;;;10.93;;
7302;SDS011;54309;48.150;11.540;2022-08-19T07:28:35;16.13;;;11.70;;
7302;SDS011;54309;48.150;11.540;2022-08-19T07:31:04;17.83;;;13.57;;
7302;SDS011;54309;48.150;11.540;2022-08-19T07:33:32;20.33;;;14.23;;
7302;SDS011;54309;48.150;11.540;2022-08-19T07:36:03;21.33;;;14.40;;
7302;SDS011;54309;48.150;11.540;2022-08-19T07:38:31;17.13;;;13.23;;
7302;SDS011;54309;48.150;11.540;2022-08-19T07:40:58;19.37;;;13.83;;
7302;SDS011;54309;48.150;11.540;2022-08-19T07:43:25;19.30;;;13.67;;
7302;SDS011;54309;48.150;11.540;2022-08-19T07:45:53;19.43;;;13.93;;
7302;SDS011;54309;48.150;11.540;2022-08-19T07:48:22;17.80;;;14.57;;
7302;SDS011;54309;48.150;11.540;2022-08-19T07:50:50;17.73;;;13.97;;
7302;SDS011;54309;48.150;11.540;2022-08-19T07:53:18;19.73;;;14.43;;
7302;SDS011;54309;48.150;11.540;2022-08-19T07:55:45;18.27;;;13.70;;
7302;SDS011;54309;48.150;11.540;2022-08-19T07:58:14;19.70;;;13.97;;
7302;SDS011;54309;48.150;11.540;2022-08-19T08:00:42;17.17;;;12.83;;
7302;SDS011;54309;48.150;11.540;2022-08-19T08:03:09;16.87;;;13.20;;
7302;SDS011;54309;48.150;11.540;2022-08-19T08:05:36;15.77;;;12.73;;
7302;SDS011;54309;48.150;11.540;2022-08-19T08:08:23;21.13;;;14.83;;
7302;SDS011;54309;48.150;11.540;2022-08-19T08:11:08;20.13;;;15.23;;
7302;SDS011;54309;48.150;11.540;2022-08-19T08:13:36;17.00;;;13.87;;
7302;SDS011;54309;48.150;11.540;2022-08-19T08:16:03;18.57;;;14.50;;
7302;SDS011;54309;48.150;11.540;2022-08-19T08:18:32;19.47;;;14.70;;
7302;SDS011;54309;48.150;11.540;2022-08-19T08:21:06;19.10;;;14.40;;
7302;SDS011;54309;48.150;11.540;2022-08-19T08:23:35;19.27;;;14.63;;
7302;SDS011;54309;48.150;11.540;2022-08-19T08:26:03;19.27;;;14.10;;
7302;SDS011;54309;48.150;11.540;2022-08-19T08:28:30;24.10;;;15.10;;
7302;SDS011;54309;48.150;11.540;2022-08-19T08:30:57;20.20;;;15.43;;
7302;SDS011;54309;48.150;11.540;2022-08-19T08:33:27;22.30;;;15.57;;
7302;SDS011;54309;48.150;11.540;2022-08-19T08:35:55;21.00;;;15.57;;
7302;SDS011;54309;48.150;11.540;2022-08-19T08:38:22;19.77;;;14.93;;
7302;SDS011;54309;48.150;11.540;2022-08-19T08:40:52;24.70;;;15.87;;
7302;SDS011;54309;48.150;11.540;2022-08-19T08:43:23;21.83;;;15.33;;
7302;SDS011;54309;48.150;11.540;2022-08-19T08:45:55;20.07;;;15.00;;
7302;SDS011;54309;48.150;11.540;2022-08-19T08:48:32;20.33;;;16.00;;
7302;SDS011;54309;48.150;11.540;2022-08-19T08:51:09;23.17;;;16.37;;
7302;SDS011;54309;48.150;11.540;2022-08-19T08:53:37;24.73;;;17.60;;
7302;SDS011;54309;48.150;11.540;2022-08-19T08:56:08;25.27;;;17.70;;
7302;SDS011;54309;48.150;11.540;2022-08-19T08:59:00;24.93;;;17.53;;
7302;SDS011;54309;48.150;11.540;2022-08-19T09:02:00;23.73;;;15.90;;
7302;SDS011;54309;48.150;11.540;2022-08-19T09:04:37;23.90;;;17.43;;
7302;SDS011;54309;48.150;11.540;2022-08-19T09:07:11;23.90;;;16.80;;
7302;SDS011;54309;48.150;11.540;2022-08-19T09:09:43;25.60;;;17.17;;
7302;SDS011;54309;48.150;11.540;2022-08-19T09:12:14;21.67;;;15.87;;
7302;SDS011;54309;48.150;11.540;2022-08-19T09:14:45;25.20;;;16.73;;
7302;SDS011;54309;48.150;11.540;2022-08-19T09:17:15;23.27;;;16.23;;
7302;SDS011;54309;48.150;11.540;2022-08-19T09:19:50;28.60;;;17.90;;
7302;SDS011;54309;48.150;11.540;2022-08-19T09:22:17;24.10;;;17.70;;
7302;SDS011;54309;48.150;11.540;2022-08-19T09:24:47;24.17;;;16.53;;
7302;SDS011;54309;48.150;11.540;2022-08-19T09:27:15;26.43;;;17.40;;
7302;SDS011;54309;48.150;11.540;2022-08-19T09:29:43;24.43;;;16.77;;
7302;SDS011;54309;48.150;11.540;2022-08-19T09:32:10;23.17;;;16.40;;
7302;SDS011;54309;48.150;11.540;2022-08-19T09:34:37;22.20;;;16.37;;
7302;SDS011;54309;48.150;11.540;2022-08-19T09:37:04;22.90;;;15.77;;
7302;SDS011;54309;48.150;11.540;2022-08-19T09:39:32;20.00;;;14.53;;
7302;SDS011;54309;48.150;11.540;2022-08-19T09:41:59;20.90;;;15.37;;
7302;SDS011;54309;48.150;11.540;2022-08-19T09:44:29;23.10;;;15.90;;
7302;SDS011;54309;48.150;11.540;2022-08-19T09:46:58;23.30;;;15.87;;
7302;SDS011;54309;48.150;11.540;2022-08-19T09:49:26;20.90;;;14.47;;
7302;SDS011;54309;48.150;11.540;2022-08-19T09:51:53;22.60;;;14.43;;
7302;SDS011;54309;48.150;11.540;2022-08-19T09:54:21;25.57;;;15.90;;
7302;SDS011;54309;48.150;11.540;2022-08-19T09:56:48;20.57;;;14.57;;
7302;SDS011;54309;48.150;11.540;2022-08-19T09:59:15;18.93;;;13.43;;
7302;SDS011;54309;48.150;11.540;2022-08-19T10:01:44;21.17;;;14.70;;
7302;SDS011;54309;48.150;11.540;2022-08-19T10:04:11;19.27;;;13.53;;
7302;SDS011;54309;48.150;11.540;2022-08-19T10:06:39;19.53;;;13.33;;
7302;SDS011;54309;48.150;11.540;2022-08-19T10:09:08;20.33;;;12.73;;
7302;SDS011;54309;48.150;11.540;2022-08-19T10:11:36;17.60;;;12.77;;
7302;SDS011;54309;48.150;11.540;2022-08-19T10:14:03;18.37;;;12.97;;
7302;SDS011;54309;48.150;11.540;2022-08-19T10:16:31;20.47;;;13.67;;
7302;SDS011;54309;48.150;11.540;2022-08-19T10:19:00;19.10;;;13.17;;
7302;SDS011;54309;48.150;11.540;2022-08-19T10:21:29;19.47;;;14.10;;
7302;SDS011;54309;48.150;11.540;2022-08-19T10:23:58;17.60;;;12.80;;
7302;SDS011;54309;48.150;11.540;2022-08-19T10:26:27;22.00;;;14.77;;
7302;SDS011;54309;48.150;11.540;2022-08-19T10:28:56;20.43;;;14.00;;
7302;SDS011;54309;48.150;11.540;2022-08-19T10:31:28;19.10;;;13.63;;
7302;SDS011;54309;48.150;11.540;2022-08-19T10:33:55;20.40;;;13.87;;
7302;SDS011;54309;48.150;11.540;2022-08-19T10:36:25;15.50;;;11.83;;
7302;SDS011;54309;48.150;11.540;2022-08-19T10:38:54;15.45;;;11.85;;
7302;SDS011;54309;48.150;11.540;2022-08-19T10:41:24;14.52;;;11.18;;
7302;SDS011;54309;48.150;11.540;2022-08-19T10:43:51;15.02;;;13.48;;
7302;SDS011;54309;48.150;11.540;2022-08-19T10:46:20;14.45;;;13.05;;
7302;SDS011;54309;48.150;11.540;2022-08-19T10:48:48;14.60;;;12.65;;
7302;SDS011;54309;48.150;11.540;2022-08-19T10:51:15;14.25;;;12.85;;
7302;SDS011;54309;48.150;11.540;2022-08-19T10:54:02;15.45;;;13.90;;
7302;SDS011;54309;48.150;11.540;2022-08-19T10:56:29;14.70;;;12.93;;
7302;SDS011;54309;48.150;11.540;2022-08-19T10:59:15;12.45;;;11.32;;
7302;SDS011;54309;48.150;11.540;2022-08-19T11:01:43;11.48;;;10.38;;
7302;SDS011;54309;48.150;11.540;2022-08-19T11:04:10;10.88;;;9.82;;
7302;SDS011;54309;48.150;11.540;2022-08-19T11:06:38;11.93;;;10.77;;
7302;SDS011;54309;48.150;11.540;2022-08-19T11:09:07;11.43;;;10.23;;
7302;SDS011;54309;48.150;11.540;2022-08-19T11:11:36;13.18;;;11.20;;
7302;SDS011;54309;48.150;11.540;2022-08-19T11:14:05;10.95;;;9.85;;
7302;SDS011;54309;48.150;11.540;2022-08-19T11:16:32;10.85;;;9.70;;
7302;SDS011;54309;48.150;11.540;2022-08-19T11:18:59;11.52;;;10.32;;
7302;SDS011;54309;48.150;11.540;2022-08-19T11:21:28;10.43;;;9.43;;
7302;SDS011;54309;48.150;11.540;2022-08-19T11:23:57;9.38;;;8.48;;
7302;SDS011;54309;48.150;11.540;2022-08-19T11:26:26;9.27;;;8.40;;
7302;SDS011;54309;48.150;11.540;2022-08-19T11:28:54;7.22;;;6.53;;
7302;SDS011;54309;48.150;11.540;2022-08-19T11:31:22;6.20;;;5.70;;
7302;SDS011;54309;48.150;11.540;2022-08-19T11:33:50;5.18;;;4.78;;
7302;SDS011;54309;48.150;11.540;2022-08-19T11:36:17;5.63;;;5.15;;
7302;SDS011;54309;48.150;11.540;2022-08-19T11:38:45;5.30;;;5.00;;
7302;SDS011;54309;48.150;11.540;2022-08-19T11:41:13;5.60;;;5.30;;
7302;SDS011;54309;48.150;11.540;2022-08-19T11:43:42;5.68;;;5.28;;
7302;SDS011;54309;48.150;11.540;2022-08-19T11:46:11;6.07;;;5.68;;
7302;SDS011;54309;48.150;11.540;2022-08-19T11:48:39;6.22;;;5.72;;
7302;SDS011;54309;48.150;11.540;2022-08-19T11:51:07;6.07;;;5.68;;
7302;SDS011;54309;48.150;11.540;2022-08-19T11:53:35;5.57;;;5.28;;
7302;SDS011;54309;48.150;11.540;2022-08-19T11:56:03;5.20;;;4.90;;
7302;SDS011;54309;48.150;11.540;2022-08-19T11:58:30;5.10;;;4.80;;
7302;SDS011;54309;48.150;11.540;2022-08-19T12:00:59;4.47;;;4.28;;
7302;SDS011;54309;48.150;11.540;2022-08-19T12:03:26;4.47;;;4.05;;
7302;SDS011;54309;48.150;11.540;2022-08-19T12:05:54;4.35;;;4.13;;
7302;SDS011;54309;48.150;11.540;2022-08-19T12:08:21;4.15;;;3.95;;
7302;SDS011;54309;48.150;11.540;2022-08-19T12:10:49;3.60;;;3.40;;
7302;SDS011;54309;48.150;11.540;2022-08-19T12:13:16;3.90;;;3.60;;
7302;SDS011;54309;48.150;11.540;2022-08-19T12:15:43;3.28;;;2.97;;
7302;SDS011;54309;48.150;11.540;2022-08-19T12:18:12;3.10;;;3.00;;
7302;SDS011;54309;48.150;11.540;2022-08-19T12:20:40;3.10;;;2.97;;
7302;SDS011;54309;48.150;11.540;2022-08-19T12:23:08;2.67;;;2.58;;
7302;SDS011;54309;48.150;11.540;2022-08-19T12:25:35;2.78;;;2.67;;
7302;SDS011;54309;48.150;11.540;2022-08-19T12:28:03;2.95;;;2.85;;
7302;SDS011;54309;48.150;11.540;2022-08-19T12:30:30;2.60;;;2.47;;
7302;SDS011;54309;48.150;11.540;2022-08-19T12:32:57;3.50;;;3.30;;
7302;SDS011;54309;48.150;11.540;2022-08-19T12:35:26;4.03;;;3.80;;
7302;SDS011;54309;48.150;11.540;2022-08-19T12:37:53;4.18;;;3.97;;
7302;SDS011;54309;48.150;11.540;2022-08-19T12:40:20;4.25;;;4.05;;
7302;SDS011;54309;48.150;11.540;2022-08-19T12:42:48;4.00;;;3.80;;
7302;SDS011;54309;48.150;11.540;2022-08-19T12:45:16;4.35;;;4.05;;
7302;SDS011;54309;48.150;11.540;2022-08-19T12:47:43;4.20;;;3.90;;
7302;SDS011;54309;48.150;11.540;2022-08-19T12:50:11;4.15;;;3.95;;
7302;SDS011;54309;48.150;11.540;2022-08-19T12:52:40;4.57;;;4.38;;
7302;SDS011;54309;48.150;11.540;2022-08-19T12:55:08;4.93;;;4.72;;
7302;SDS011;54309;48.150;11.540;2022-08-19T12:57:35;4.90;;;4.70;;
7302;SDS011;54309;48.150;11.540;2022-08-19T13:00:04;6.55;;;6.15;;
7302;SDS011;54309;48.150;11.540;2022-08-19T13:02:35;17.52;;;14.52;;
7302;SDS011;54309;48.150;11.540;2022-08-19T13:05:03;6.03;;;5.72;;
7302;SDS011;54309;48.150;11.540;2022-08-19T13:07:31;5.80;;;5.50;;
7302;SDS011;54309;48.150;11.540;2022-08-19T13:10:00;5.70;;;5.50;;
7302;SDS011;54309;48.150;11.540;2022-08-19T13:12:27;5.70;;;5.40;;
7302;SDS011;54309;48.150;11.540;2022-08-19T13:14:55;5.82;;;5.43;;
7302;SDS011;54309;48.150;11.540;2022-08-19T13:17:22;5.38;;;5.18;;
7302;SDS011;54309;48.150;11.540;2022-08-19T13:19:49;6.05;;;5.75;;
7302;SDS011;54309;48.150;11.540;2022-08-19T13:22:16;5.90;;;5.70;;
7302;SDS011;54309;48.150;11.540;2022-08-19T13:24:44;5.95;;;5.70;;
7302;SDS011;54309;48.150;11.540;2022-08-19T13:27:12;5.93;;;5.57;;
7302;SDS011;54309;48.150;11.540;2022-08-19T13:29:39;5.80;;;5.60;;
7302;SDS011;54309;48.150;11.540;2022-08-19T13:32:24;5.80;;;5.60;;
7302;SDS011;54309;48.150;11.540;2022-08-19T13:35:09;6.00;;;5.70;;
7302;SDS011;54309;48.150;11.540;2022-08-19T13:37:36;6.10;;;5.80;;
7302;SDS011;54309;48.150;11.540;2022-08-19T13:40:10;6.15;;;5.90;;
7302;SDS011;54309;48.150;11.540;2022-08-19T13:42:41;5.85;;;5.45;;
7302;SDS011;54309;48.150;11.540;2022-08-19T13:45:11;5.57;;;5.38;;
7302;SDS011;54309;48.150;11.540;2022-08-19T13:47:39;6.43;;;5.97;;
7302;SDS011;54309;48.150;11.540;2022-08-19T13:50:08;6.45;;;6.15;;
7302;SDS011;54309;48.150;11.540;2022-08-19T13:52:35;6.10;;;5.80;;
7302;SDS011;54309;48.150;11.540;2022-08-19T13:55:03;5.82;;;5.63;;
7302;SDS011;54309;48.150;11.540;2022-08-19T13:57:31;6.20;;;5.90;;
7302;SDS011;54309;48.150;11.540;2022-08-19T13:59:59;5.57;;;5.30;;
7302;SDS011;54309;48.150;11.540;2022-08-19T14:02:27;5.82;;;5.53;;
7302;SDS011;54309;48.150;11.540;2022-08-19T14:04:54;5.78;;;5.47;;
7302;SDS011;54309;48.150;11.540;2022-08-19T14:07:21;6.00;;;5.60;;
7302;SDS011;54309;48.150;11.540;2022-08-19T14:09:49;5.97;;;5.57;;
7302;SDS011;54309;48.150;11.540;2022-08-19T14:12:18;6.70;;;6.30;;
7302;SDS011;54309;48.150;11.540;2022-08-19T14:14:45;5.90;;;5.60;;
7302;SDS011;54309;48.150;11.540;2022-08-19T14:17:13;6.20;;;5.90;;
7302;SDS011;54309;48.150;11.540;2022-08-19T14:19:41;6.47;;;6.18;;
7302;SDS011;54309;48.150;11.540;2022-08-19T14:22:09;5.95;;;5.65;;
7302;SDS011;54309;48.150;11.540;2022-08-19T14:24:36;6.18;;;5.88;;
7302;SDS011;54309;48.150;11.540;2022-08-19T14:27:04;6.38;;;6.07;;
7302;SDS011;54309;48.150;11.540;2022-08-19T14:29:32;6.47;;;6.18;;
7302;SDS011;54309;48.150;11.540;2022-08-19T14:31:59;9.80;;;9.02;;
7302;SDS011;54309;48.150;11.540;2022-08-19T14:34:30;5.95;;;5.65;;
7302;SDS011;54309;48.150;11.540;2022-08-19T14:36:58;5.78;;;5.45;;
7302;SDS011;54309;48.150;11.540;2022-08-19T14:39:25;5.35;;;5.15;;
7302;SDS011;54309;48.150;11.540;2022-08-19T14:41:53;6.13;;;5.72;;
7302;SDS011;54309;48.150;11.540;2022-08-19T14:44:21;5.80;;;5.50;;
7302;SDS011;54309;48.150;11.540;2022-08-19T14:46:48;5.43;;;5.13;;